sensor_id;sensor_type;location;lat;lon;timestamp;temperature;humidity
31113;DHT22;17763;48.730;9.136;2022-09-25T00:00:51;14.10;99.90
31113;DHT22;17763;48.730;9.136;2022-09-25T00:03:18;14.10;99.90
31113;DHT22;17763;48.730;9.136;2022-09-25T00:05:45;14.00;99.90
31113;DHT22;17763;48.730;9.136;2022-09-25T00:08:12;14.10;99.90
31113;DHT22;17763;48.730;9.136;2022-09-25T00:10:43;14.10;99.90
31113;DHT22;17763;48.730;9.136;2022-09-25T00:13:11;14.10;99.90
31113;DHT22;17763;48.730;9.136;2022-09-25T00:15:37;14.10;99.90
31113;DHT22;17763;48.730;9.136;2022-09-25T00:18:03;14.10;99.90
31113;DHT22;17763;48.730;9.136;2022-09-25T00:20:28;14.00;99.90
31113;DHT22;17763;48.730;9.136;2022-09-25T00:22:54;14.00;99.90
31113;DHT22;17763;48.730;9.136;2022-09-25T00:25:21;14.00;99.90
31113;DHT22;17763;48.730;9.136;2022-09-25T00:27:54;13.90;99.90
31113;DHT22;17763;48.730;9.136;2022-09-25T00:30:20;13.90;99.90
31113;DHT22;17763;48.730;9.136;2022-09-25T00:32:46;13.90;99.90
31113;DHT22;17763;48.730;9.136;2022-09-25T00:35:14;13.90;99.90
31113;DHT22;17763;48.730;9.136;2022-09-25T00:37:40;13.90;99.90
31113;DHT22;17763;48.730;9.136;2022-09-25T00:40:08;14.00;99.90
31113;DHT22;17763;48.730;9.136;2022-09-25T00:42:34;14.00;99.90
31113;DHT22;17763;48.730;9.136;2022-09-25T00:45:06;14.00;99.90
31113;DHT22;17763;48.730;9.136;2022-09-25T00:50:29;14.00;99.90
31113;DHT22;17763;48.730;9.136;2022-09-25T00:53:01;14.00;99.90
31113;DHT22;17763;48.730;9.136;2022-09-25T00:55:29;14.00;99.90
31113;DHT22;17763;48.730;9.136;2022-09-25T00:57:56;14.00;99.90
31113;DHT22;17763;48.730;9.136;2022-09-25T01:00:22;14.00;99.90
31113;DHT22;17763;48.730;9.136;2022-09-25T01:02:52;14.00;99.90
31113;DHT22;17763;48.730;9.136;2022-09-25T01:05:22;14.00;99.90
31113;DHT22;17763;48.730;9.136;2022-09-25T01:07:49;14.00;99.90
31113;DHT22;17763;48.730;9.136;2022-09-25T01:10:18;14.00;99.90
31113;DHT22;17763;48.730;9.136;2022-09-25T01:12:45;13.90;99.90
31113;DHT22;17763;48.730;9.136;2022-09-25T01:15:17;13.90;99.90
31113;DHT22;17763;48.730;9.136;2022-09-25T01:18:00;13.90;99.90
31113;DHT22;17763;48.730;9.136;2022-09-25T01:29:09;13.80;99.90
31113;DHT22;17763;48.730;9.136;2022-09-25T01:34:27;13.80;99.90
31113;DHT22;17763;48.730;9.136;2022-09-25T01:39:46;13.70;99.90
31113;DHT22;17763;48.730;9.136;2022-09-25T01:42:22;13.60;99.90
31113;DHT22;17763;48.730;9.136;2022-09-25T01:44:58;13.60;99.90
31113;DHT22;17763;48.730;9.136;2022-09-25T01:47:30;13.60;99.90
31113;DHT22;17763;48.730;9.136;2022-09-25T01:50:11;13.50;99.90
31113;DHT22;17763;48.730;9.136;2022-09-25T01:52:45;13.50;99.90
31113;DHT22;17763;48.730;9.136;2022-09-25T02:00:28;13.50;99.90
31113;DHT22;17763;48.730;9.136;2022-09-25T02:03:07;13.50;99.90
31113;DHT22;17763;48.730;9.136;2022-09-25T02:05:45;13.50;99.90
31113;DHT22;17763;48.730;9.136;2022-09-25T02:08:26;13.60;99.90
31113;DHT22;17763;48.730;9.136;2022-09-25T02:11:00;13.60;99.90
31113;DHT22;17763;48.730;9.136;2022-09-25T02:13:49;13.60;99.90
31113;DHT22;17763;48.730;9.136;2022-09-25T02:16:27;13.60;99.90
31113;DHT22;17763;48.730;9.136;2022-09-25T02:18:54;13.60;99.90
31113;DHT22;17763;48.730;9.136;2022-09-25T02:27:07;13.70;99.90
31113;DHT22;17763;48.730;9.136;2022-09-25T02:29:33;13.70;99.90
31113;DHT22;17763;48.730;9.136;2022-09-25T02:32:09;13.70;99.90
31113;DHT22;17763;48.730;9.136;2022-09-25T02:34:39;13.70;99.90
31113;DHT22;17763;48.730;9.136;2022-09-25T02:37:15;13.60;99.90
31113;DHT22;17763;48.730;9.136;2022-09-25T02:39:45;13.60;99.90
31113;DHT22;17763;48.730;9.136;2022-09-25T02:45:26;13.70;99.90
31113;DHT22;17763;48.730;9.136;2022-09-25T02:50:56;13.60;99.90
31113;DHT22;17763;48.730;9.136;2022-09-25T02:53:35;13.60;99.90
31113;DHT22;17763;48.730;9.136;2022-09-25T02:56:19;13.60;99.90
31113;DHT22;17763;48.730;9.136;2022-09-25T02:59:03;13.60;99.90
31113;DHT22;17763;48.730;9.136;2022-09-25T03:01:31;13.60;99.90
31113;DHT22;17763;48.730;9.136;2022-09-25T03:03:59;13.60;99.90
31113;DHT22;17763;48.730;9.136;2022-09-25T03:06:29;13.60;99.90
31113;DHT22;17763;48.730;9.136;2022-09-25T03:08:55;13.60;99.90
31113;DHT22;17763;48.730;9.136;2022-09-25T03:11:27;13.60;99.90
31113;DHT22;17763;48.730;9.136;2022-09-25T03:13:57;13.70;99.90
31113;DHT22;17763;48.730;9.136;2022-09-25T03:16:40;13.70;99.90
31113;DHT22;17763;48.730;9.136;2022-09-25T03:19:06;13.70;99.90
31113;DHT22;17763;48.730;9.136;2022-09-25T03:21:32;13.70;99.90
31113;DHT22;17763;48.730;9.136;2022-09-25T03:23:58;13.70;99.90
31113;DHT22;17763;48.730;9.136;2022-09-25T03:26:25;13.70;99.90
31113;DHT22;17763;48.730;9.136;2022-09-25T03:28:54;13.70;99.90
31113;DHT22;17763;48.730;9.136;2022-09-25T03:31:27;13.70;99.90
31113;DHT22;17763;48.730;9.136;2022-09-25T03:33:56;13.70;99.90
31113;DHT22;17763;48.730;9.136;2022-09-25T03:36:26;13.70;99.90
31113;DHT22;17763;48.730;9.136;2022-09-25T03:38:56;13.70;99.90
31113;DHT22;17763;48.730;9.136;2022-09-25T03:41:25;13.70;99.90
31113;DHT22;17763;48.730;9.136;2022-09-25T03:43:51;13.60;99.90
31113;DHT22;17763;48.730;9.136;2022-09-25T03:46:21;13.60;99.90
31113;DHT22;17763;48.730;9.136;2022-09-25T03:48:47;13.60;99.90
31113;DHT22;17763;48.730;9.136;2022-09-25T03:51:16;13.70;99.90
31113;DHT22;17763;48.730;9.136;2022-09-25T03:53:43;13.70;99.90
31113;DHT22;17763;48.730;9.136;2022-09-25T03:56:12;13.70;99.90
31113;DHT22;17763;48.730;9.136;2022-09-25T03:58:43;13.70;99.90
31113;DHT22;17763;48.730;9.136;2022-09-25T04:01:10;13.80;99.90
31113;DHT22;17763;48.730;9.136;2022-09-25T04:03:36;13.80;99.90
31113;DHT22;17763;48.730;9.136;2022-09-25T04:06:06;13.80;99.90
31113;DHT22;17763;48.730;9.136;2022-09-25T04:08:37;13.80;99.90
31113;DHT22;17763;48.730;9.136;2022-09-25T04:11:03;13.70;99.90
31113;DHT22;17763;48.730;9.136;2022-09-25T04:13:34;13.70;99.90
31113;DHT22;17763;48.730;9.136;2022-09-25T04:16:02;13.70;99.90
31113;DHT22;17763;48.730;9.136;2022-09-25T04:18:31;13.70;99.90
31113;DHT22;17763;48.730;9.136;2022-09-25T04:21:01;13.70;99.90
31113;DHT22;17763;48.730;9.136;2022-09-25T04:23:28;13.70;99.90
31113;DHT22;17763;48.730;9.136;2022-09-25T04:26:00;13.70;99.90
31113;DHT22;17763;48.730;9.136;2022-09-25T04:28:26;13.70;99.90
31113;DHT22;17763;48.730;9.136;2022-09-25T04:30:55;13.80;99.90
31113;DHT22;17763;48.730;9.136;2022-09-25T04:33:21;13.80;99.90
31113;DHT22;17763;48.730;9.136;2022-09-25T04:36:05;13.80;99.90
31113;DHT22;17763;48.730;9.136;2022-09-25T04:38:31;13.80;99.90
31113;DHT22;17763;48.730;9.136;2022-09-25T04:41:00;13.80;99.90
31113;DHT22;17763;48.730;9.136;2022-09-25T04:43:30;13.80;99.90
31113;DHT22;17763;48.730;9.136;2022-09-25T04:46:03;13.80;99.90
31113;DHT22;17763;48.730;9.136;2022-09-25T04:48:32;13.80;99.90
31113;DHT22;17763;48.730;9.136;2022-09-25T04:51:01;13.70;99.90
31113;DHT22;17763;48.730;9.136;2022-09-25T04:53:31;13.70;99.90
31113;DHT22;17763;48.730;9.136;2022-09-25T04:56:05;13.70;99.90
31113;DHT22;17763;48.730;9.136;2022-09-25T04:58:32;13.60;99.90
31113;DHT22;17763;48.730;9.136;2022-09-25T05:01:06;13.60;99.90
31113;DHT22;17763;48.730;9.136;2022-09-25T05:03:33;13.60;99.90
31113;DHT22;17763;48.730;9.136;2022-09-25T05:05:59;13.60;99.90
31113;DHT22;17763;48.730;9.136;2022-09-25T05:08:27;13.60;99.90
31113;DHT22;17763;48.730;9.136;2022-09-25T05:10:53;13.60;99.90
31113;DHT22;17763;48.730;9.136;2022-09-25T05:13:19;13.60;99.90
31113;DHT22;17763;48.730;9.136;2022-09-25T05:15:44;13.60;99.90
31113;DHT22;17763;48.730;9.136;2022-09-25T05:18:23;13.60;99.90
31113;DHT22;17763;48.730;9.136;2022-09-25T05:20:52;13.70;99.90
31113;DHT22;17763;48.730;9.136;2022-09-25T05:23:19;13.70;99.90
31113;DHT22;17763;48.730;9.136;2022-09-25T05:25:52;13.70;99.90
31113;DHT22;17763;48.730;9.136;2022-09-25T05:28:23;13.70;99.90
31113;DHT22;17763;48.730;9.136;2022-09-25T05:30:49;13.70;99.90
31113;DHT22;17763;48.730;9.136;2022-09-25T05:33:18;13.70;99.90
31113;DHT22;17763;48.730;9.136;2022-09-25T05:35:46;13.70;99.90
31113;DHT22;17763;48.730;9.136;2022-09-25T05:38:13;13.70;99.90
31113;DHT22;17763;48.730;9.136;2022-09-25T05:40:39;13.70;99.90
31113;DHT22;17763;48.730;9.136;2022-09-25T05:43:05;13.70;99.90
31113;DHT22;17763;48.730;9.136;2022-09-25T05:45:34;13.70;99.90
31113;DHT22;17763;48.730;9.136;2022-09-25T05:48:05;13.70;99.90
31113;DHT22;17763;48.730;9.136;2022-09-25T05:50:31;13.70;99.90
31113;DHT22;17763;48.730;9.136;2022-09-25T05:52:58;13.70;99.90
31113;DHT22;17763;48.730;9.136;2022-09-25T05:55:25;13.70;99.90
31113;DHT22;17763;48.730;9.136;2022-09-25T05:57:57;13.70;99.90
31113;DHT22;17763;48.730;9.136;2022-09-25T06:00:26;13.70;99.90
31113;DHT22;17763;48.730;9.136;2022-09-25T06:02:52;13.70;99.90
31113;DHT22;17763;48.730;9.136;2022-09-25T06:05:20;13.80;99.90
31113;DHT22;17763;48.730;9.136;2022-09-25T06:07:52;13.80;99.90
31113;DHT22;17763;48.730;9.136;2022-09-25T06:10:18;13.70;99.90
31113;DHT22;17763;48.730;9.136;2022-09-25T06:12:46;13.70;99.90
31113;DHT22;17763;48.730;9.136;2022-09-25T06:15:12;13.70;99.90
31113;DHT22;17763;48.730;9.136;2022-09-25T06:17:38;13.70;99.90
31113;DHT22;17763;48.730;9.136;2022-09-25T06:20:07;13.70;99.90
31113;DHT22;17763;48.730;9.136;2022-09-25T06:22:35;13.70;99.90
31113;DHT22;17763;48.730;9.136;2022-09-25T06:25:03;13.70;99.90
31113;DHT22;17763;48.730;9.136;2022-09-25T06:27:29;13.70;99.90
31113;DHT22;17763;48.730;9.136;2022-09-25T06:29:55;13.80;99.90
31113;DHT22;17763;48.730;9.136;2022-09-25T06:32:21;13.80;99.90
31113;DHT22;17763;48.730;9.136;2022-09-25T06:34:48;13.80;99.90
31113;DHT22;17763;48.730;9.136;2022-09-25T06:37:16;13.80;99.90
31113;DHT22;17763;48.730;9.136;2022-09-25T06:39:41;13.80;99.90
31113;DHT22;17763;48.730;9.136;2022-09-25T06:42:07;13.80;99.90
31113;DHT22;17763;48.730;9.136;2022-09-25T06:44:33;13.80;99.90
31113;DHT22;17763;48.730;9.136;2022-09-25T06:46:59;13.80;99.90
31113;DHT22;17763;48.730;9.136;2022-09-25T06:49:26;13.80;99.90
31113;DHT22;17763;48.730;9.136;2022-09-25T06:51:52;13.80;99.90
31113;DHT22;17763;48.730;9.136;2022-09-25T06:54:17;13.90;99.90
31113;DHT22;17763;48.730;9.136;2022-09-25T06:56:48;13.80;99.90
31113;DHT22;17763;48.730;9.136;2022-09-25T06:59:14;13.80;99.90
31113;DHT22;17763;48.730;9.136;2022-09-25T07:01:40;13.80;99.90
31113;DHT22;17763;48.730;9.136;2022-09-25T07:04:06;13.80;99.90
31113;DHT22;17763;48.730;9.136;2022-09-25T07:06:37;13.80;99.90
31113;DHT22;17763;48.730;9.136;2022-09-25T07:09:05;13.70;99.90
31113;DHT22;17763;48.730;9.136;2022-09-25T07:11:36;13.70;99.90
31113;DHT22;17763;48.730;9.136;2022-09-25T07:14:13;13.70;99.90
31113;DHT22;17763;48.730;9.136;2022-09-25T07:16:39;13.70;99.90
31113;DHT22;17763;48.730;9.136;2022-09-25T07:19:05;13.80;99.90
31113;DHT22;17763;48.730;9.136;2022-09-25T07:21:31;13.80;99.90
31113;DHT22;17763;48.730;9.136;2022-09-25T07:23:57;13.70;99.90
31113;DHT22;17763;48.730;9.136;2022-09-25T07:26:28;13.70;99.90
31113;DHT22;17763;48.730;9.136;2022-09-25T07:29:14;13.70;99.90
31113;DHT22;17763;48.730;9.136;2022-09-25T07:31:44;13.70;99.90
31113;DHT22;17763;48.730;9.136;2022-09-25T07:34:10;13.80;99.90
31113;DHT22;17763;48.730;9.136;2022-09-25T07:36:38;13.80;99.90
31113;DHT22;17763;48.730;9.136;2022-09-25T07:39:06;13.80;99.90
31113;DHT22;17763;48.730;9.136;2022-09-25T07:41:32;13.80;99.90
31113;DHT22;17763;48.730;9.136;2022-09-25T07:43:58;13.90;99.90
31113;DHT22;17763;48.730;9.136;2022-09-25T07:46:26;14.00;99.90
31113;DHT22;17763;48.730;9.136;2022-09-25T07:48:52;13.90;99.90
31113;DHT22;17763;48.730;9.136;2022-09-25T07:51:18;14.00;99.90
31113;DHT22;17763;48.730;9.136;2022-09-25T07:53:46;14.00;99.90
31113;DHT22;17763;48.730;9.136;2022-09-25T07:56:14;14.00;99.90
31113;DHT22;17763;48.730;9.136;2022-09-25T07:58:43;14.10;99.90
31113;DHT22;17763;48.730;9.136;2022-09-25T08:01:12;14.10;99.90
31113;DHT22;17763;48.730;9.136;2022-09-25T08:03:38;14.20;99.90
31113;DHT22;17763;48.730;9.136;2022-09-25T08:06:06;14.20;99.90
31113;DHT22;17763;48.730;9.136;2022-09-25T08:08:34;14.20;99.90
31113;DHT22;17763;48.730;9.136;2022-09-25T08:11:05;14.20;99.90
31113;DHT22;17763;48.730;9.136;2022-09-25T08:13:35;14.30;99.90
31113;DHT22;17763;48.730;9.136;2022-09-25T08:16:08;14.30;99.90
31113;DHT22;17763;48.730;9.136;2022-09-25T08:18:41;14.30;99.90
31113;DHT22;17763;48.730;9.136;2022-09-25T08:21:08;14.40;99.90
31113;DHT22;17763;48.730;9.136;2022-09-25T08:23:39;14.40;99.90
31113;DHT22;17763;48.730;9.136;2022-09-25T08:26:07;14.40;99.90
31113;DHT22;17763;48.730;9.136;2022-09-25T08:28:33;14.40;99.90
31113;DHT22;17763;48.730;9.136;2022-09-25T08:31:01;14.40;99.90
31113;DHT22;17763;48.730;9.136;2022-09-25T08:33:29;14.40;99.90
31113;DHT22;17763;48.730;9.136;2022-09-25T08:36:00;14.40;99.90
31113;DHT22;17763;48.730;9.136;2022-09-25T08:38:31;14.40;99.90
31113;DHT22;17763;48.730;9.136;2022-09-25T08:41:24;14.40;99.90
31113;DHT22;17763;48.730;9.136;2022-09-25T08:44:22;14.50;99.90
31113;DHT22;17763;48.730;9.136;2022-09-25T08:46:50;14.50;99.90
31113;DHT22;17763;48.730;9.136;2022-09-25T08:50:11;14.50;99.90
31113;DHT22;17763;48.730;9.136;2022-09-25T08:52:40;14.60;99.90
31113;DHT22;17763;48.730;9.136;2022-09-25T08:55:18;14.60;99.90
31113;DHT22;17763;48.730;9.136;2022-09-25T08:57:49;14.60;99.90
31113;DHT22;17763;48.730;9.136;2022-09-25T09:00:22;14.60;99.90
31113;DHT22;17763;48.730;9.136;2022-09-25T09:02:55;14.60;99.90
31113;DHT22;17763;48.730;9.136;2022-09-25T09:05:28;14.70;99.90
31113;DHT22;17763;48.730;9.136;2022-09-25T09:10:40;14.80;99.90
31113;DHT22;17763;48.730;9.136;2022-09-25T09:13:30;14.80;99.90
31113;DHT22;17763;48.730;9.136;2022-09-25T09:18:38;14.80;99.90
31113;DHT22;17763;48.730;9.136;2022-09-25T09:21:41;14.80;99.90
31113;DHT22;17763;48.730;9.136;2022-09-25T09:24:14;14.70;99.90
31113;DHT22;17763;48.730;9.136;2022-09-25T09:26:48;14.80;99.90
31113;DHT22;17763;48.730;9.136;2022-09-25T09:32:21;14.80;99.90
31113;DHT22;17763;48.730;9.136;2022-09-25T09:51:42;14.90;99.90
31113;DHT22;17763;48.730;9.136;2022-09-25T09:54:13;15.00;99.90
31113;DHT22;17763;48.730;9.136;2022-09-25T09:56:46;15.00;99.90
31113;DHT22;17763;48.730;9.136;2022-09-25T09:59:30;14.90;99.90
31113;DHT22;17763;48.730;9.136;2022-09-25T10:02:10;14.90;99.90
31113;DHT22;17763;48.730;9.136;2022-09-25T10:04:42;15.00;99.90
31113;DHT22;17763;48.730;9.136;2022-09-25T10:07:14;15.00;99.90
31113;DHT22;17763;48.730;9.136;2022-09-25T10:09:41;14.90;99.90
31113;DHT22;17763;48.730;9.136;2022-09-25T10:12:29;14.80;99.90
31113;DHT22;17763;48.730;9.136;2022-09-25T10:15:02;14.90;99.90
31113;DHT22;17763;48.730;9.136;2022-09-25T10:17:28;14.80;99.90
31113;DHT22;17763;48.730;9.136;2022-09-25T10:20:11;14.80;99.90
31113;DHT22;17763;48.730;9.136;2022-09-25T10:22:42;14.80;99.90
31113;DHT22;17763;48.730;9.136;2022-09-25T10:25:13;14.90;99.90
31113;DHT22;17763;48.730;9.136;2022-09-25T10:27:42;14.90;99.90
31113;DHT22;17763;48.730;9.136;2022-09-25T10:37:40;14.90;99.90
31113;DHT22;17763;48.730;9.136;2022-09-25T10:40:24;14.90;99.90
31113;DHT22;17763;48.730;9.136;2022-09-25T10:45:36;14.90;99.90
31113;DHT22;17763;48.730;9.136;2022-09-25T10:48:22;14.90;99.90
31113;DHT22;17763;48.730;9.136;2022-09-25T10:51:09;15.00;99.90
31113;DHT22;17763;48.730;9.136;2022-09-25T10:53:37;15.00;99.90
31113;DHT22;17763;48.730;9.136;2022-09-25T10:56:08;15.00;99.90
31113;DHT22;17763;48.730;9.136;2022-09-25T10:58:38;14.90;99.90
31113;DHT22;17763;48.730;9.136;2022-09-25T11:01:10;15.00;99.90
31113;DHT22;17763;48.730;9.136;2022-09-25T11:03:50;14.90;99.90
31113;DHT22;17763;48.730;9.136;2022-09-25T11:06:20;14.90;99.90
31113;DHT22;17763;48.730;9.136;2022-09-25T11:08:52;14.90;99.90
31113;DHT22;17763;48.730;9.136;2022-09-25T11:11:21;14.90;99.90
31113;DHT22;17763;48.730;9.136;2022-09-25T11:13:55;14.90;99.90
31113;DHT22;17763;48.730;9.136;2022-09-25T11:16:42;14.90;99.90
31113;DHT22;17763;48.730;9.136;2022-09-25T11:19:36;14.80;99.90
31113;DHT22;17763;48.730;9.136;2022-09-25T11:30:17;14.80;99.90
31113;DHT22;17763;48.730;9.136;2022-09-25T11:32:44;14.80;99.90
31113;DHT22;17763;48.730;9.136;2022-09-25T11:35:48;14.80;99.90
31113;DHT22;17763;48.730;9.136;2022-09-25T11:41:59;14.70;99.90
31113;DHT22;17763;48.730;9.136;2022-09-25T11:47:36;14.60;99.90
31113;DHT22;17763;48.730;9.136;2022-09-25T11:50:10;14.70;99.90
31113;DHT22;17763;48.730;9.136;2022-09-25T11:58:39;14.60;99.90
31113;DHT22;17763;48.730;9.136;2022-09-25T12:06:49;14.60;99.90
31113;DHT22;17763;48.730;9.136;2022-09-25T12:20:40;14.70;99.90
31113;DHT22;17763;48.730;9.136;2022-09-25T12:36:31;15.10;99.90
31113;DHT22;17763;48.730;9.136;2022-09-25T12:42:01;15.20;99.90
31113;DHT22;17763;48.730;9.136;2022-09-25T12:44:42;15.20;99.90
31113;DHT22;17763;48.730;9.136;2022-09-25T12:50:00;15.20;99.90
31113;DHT22;17763;48.730;9.136;2022-09-25T12:52:34;15.30;99.90
31113;DHT22;17763;48.730;9.136;2022-09-25T12:55:18;15.30;99.90
31113;DHT22;17763;48.730;9.136;2022-09-25T12:57:53;15.40;99.90
31113;DHT22;17763;48.730;9.136;2022-09-25T13:00:28;15.50;99.90
31113;DHT22;17763;48.730;9.136;2022-09-25T13:03:16;15.40;99.90
31113;DHT22;17763;48.730;9.136;2022-09-25T13:05:59;15.50;99.90
31113;DHT22;17763;48.730;9.136;2022-09-25T13:13:55;15.50;99.90
31113;DHT22;17763;48.730;9.136;2022-09-25T13:16:22;15.50;99.90
31113;DHT22;17763;48.730;9.136;2022-09-25T13:19:11;15.60;99.90
31113;DHT22;17763;48.730;9.136;2022-09-25T13:21:41;15.60;99.90
31113;DHT22;17763;48.730;9.136;2022-09-25T13:24:12;15.50;99.90
31113;DHT22;17763;48.730;9.136;2022-09-25T13:26:52;15.50;99.90
31113;DHT22;17763;48.730;9.136;2022-09-25T13:29:29;15.50;99.90
31113;DHT22;17763;48.730;9.136;2022-09-25T13:32:18;15.50;99.90
31113;DHT22;17763;48.730;9.136;2022-09-25T13:34:45;15.40;99.90
31113;DHT22;17763;48.730;9.136;2022-09-25T13:37:14;15.50;99.90
31113;DHT22;17763;48.730;9.136;2022-09-25T13:39:47;15.40;99.90
31113;DHT22;17763;48.730;9.136;2022-09-25T13:42:35;15.40;99.90
31113;DHT22;17763;48.730;9.136;2022-09-25T13:47:32;15.40;99.90
31113;DHT22;17763;48.730;9.136;2022-09-25T13:55:29;15.50;99.90
31113;DHT22;17763;48.730;9.136;2022-09-25T14:00:50;15.40;99.90
31113;DHT22;17763;48.730;9.136;2022-09-25T14:03:42;15.30;99.90
31113;DHT22;17763;48.730;9.136;2022-09-25T14:06:23;15.30;99.90
31113;DHT22;17763;48.730;9.136;2022-09-25T14:08:54;15.30;99.90
31113;DHT22;17763;48.730;9.136;2022-09-25T14:11:25;15.30;99.90
31113;DHT22;17763;48.730;9.136;2022-09-25T14:13:52;15.40;99.90
31113;DHT22;17763;48.730;9.136;2022-09-25T14:16:49;15.40;99.90
31113;DHT22;17763;48.730;9.136;2022-09-25T14:19:31;15.40;99.90
31113;DHT22;17763;48.730;9.136;2022-09-25T14:22:01;15.50;99.90
31113;DHT22;17763;48.730;9.136;2022-09-25T14:24:28;15.60;99.90
31113;DHT22;17763;48.730;9.136;2022-09-25T14:26:59;15.70;99.90
31113;DHT22;17763;48.730;9.136;2022-09-25T14:29:40;15.70;99.90
31113;DHT22;17763;48.730;9.136;2022-09-25T14:35:22;15.80;99.90
31113;DHT22;17763;48.730;9.136;2022-09-25T14:38:05;15.90;99.90
31113;DHT22;17763;48.730;9.136;2022-09-25T14:40:36;16.00;99.90
31113;DHT22;17763;48.730;9.136;2022-09-25T14:43:30;16.10;99.90
31113;DHT22;17763;48.730;9.136;2022-09-25T14:46:09;16.00;99.90
31113;DHT22;17763;48.730;9.136;2022-09-25T14:48:41;16.00;99.90
31113;DHT22;17763;48.730;9.136;2022-09-25T14:51:23;16.00;99.90
31113;DHT22;17763;48.730;9.136;2022-09-25T14:54:02;15.90;99.90
31113;DHT22;17763;48.730;9.136;2022-09-25T14:56:29;15.90;99.90
31113;DHT22;17763;48.730;9.136;2022-09-25T14:59:01;15.90;99.90
31113;DHT22;17763;48.730;9.136;2022-09-25T15:01:31;15.80;99.90
31113;DHT22;17763;48.730;9.136;2022-09-25T15:04:03;15.80;99.90
31113;DHT22;17763;48.730;9.136;2022-09-25T15:06:34;15.80;99.90
31113;DHT22;17763;48.730;9.136;2022-09-25T15:09:34;15.80;99.90
31113;DHT22;17763;48.730;9.136;2022-09-25T15:17:31;15.70;99.90
31113;DHT22;17763;48.730;9.136;2022-09-25T15:20:01;15.70;99.90
31113;DHT22;17763;48.730;9.136;2022-09-25T15:22:36;15.70;99.90
31113;DHT22;17763;48.730;9.136;2022-09-25T15:25:10;15.80;99.90
31113;DHT22;17763;48.730;9.136;2022-09-25T15:27:40;15.90;99.90
31113;DHT22;17763;48.730;9.136;2022-09-25T15:30:14;16.00;99.90
31113;DHT22;17763;48.730;9.136;2022-09-25T15:32:40;16.00;99.90
31113;DHT22;17763;48.730;9.136;2022-09-25T15:35:07;16.00;99.90
31113;DHT22;17763;48.730;9.136;2022-09-25T15:37:33;16.00;99.90
31113;DHT22;17763;48.730;9.136;2022-09-25T15:40:10;15.90;99.90
31113;DHT22;17763;48.730;9.136;2022-09-25T15:42:36;15.80;99.90
31113;DHT22;17763;48.730;9.136;2022-09-25T15:45:37;15.80;99.90
31113;DHT22;17763;48.730;9.136;2022-09-25T15:48:31;15.90;99.90
31113;DHT22;17763;48.730;9.136;2022-09-25T15:51:01;15.90;99.90
31113;DHT22;17763;48.730;9.136;2022-09-25T15:53:34;15.70;99.90
31113;DHT22;17763;48.730;9.136;2022-09-25T15:56:19;15.60;99.90
31113;DHT22;17763;48.730;9.136;2022-09-25T16:01:22;15.40;99.90
31113;DHT22;17763;48.730;9.136;2022-09-25T16:04:09;15.40;99.90
31113;DHT22;17763;48.730;9.136;2022-09-25T16:06:57;15.40;99.90
31113;DHT22;17763;48.730;9.136;2022-09-25T16:09:27;15.30;99.90
31113;DHT22;17763;48.730;9.136;2022-09-25T16:14:54;15.20;99.90
31113;DHT22;17763;48.730;9.136;2022-09-25T16:17:31;15.10;99.90
31113;DHT22;17763;48.730;9.136;2022-09-25T16:20:04;15.00;99.90
31113;DHT22;17763;48.730;9.136;2022-09-25T16:22:37;14.90;99.90
31113;DHT22;17763;48.730;9.136;2022-09-25T16:25:24;14.90;99.90
31113;DHT22;17763;48.730;9.136;2022-09-25T16:27:51;14.80;99.90
31113;DHT22;17763;48.730;9.136;2022-09-25T16:30:20;14.70;99.90
31113;DHT22;17763;48.730;9.136;2022-09-25T16:32:50;14.70;99.90
31113;DHT22;17763;48.730;9.136;2022-09-25T16:35:29;14.70;99.90
31113;DHT22;17763;48.730;9.136;2022-09-25T16:37:58;14.60;99.90
31113;DHT22;17763;48.730;9.136;2022-09-25T16:40:30;14.50;99.90
31113;DHT22;17763;48.730;9.136;2022-09-25T16:42:59;14.50;99.90
31113;DHT22;17763;48.730;9.136;2022-09-25T16:45:35;14.50;99.90
31113;DHT22;17763;48.730;9.136;2022-09-25T16:48:26;14.50;99.90
31113;DHT22;17763;48.730;9.136;2022-09-25T16:50:54;14.50;99.90
31113;DHT22;17763;48.730;9.136;2022-09-25T16:53:21;14.50;99.90
31113;DHT22;17763;48.730;9.136;2022-09-25T16:55:50;14.50;99.90
31113;DHT22;17763;48.730;9.136;2022-09-25T16:58:18;14.40;99.90
31113;DHT22;17763;48.730;9.136;2022-09-25T17:00:44;14.40;99.90
31113;DHT22;17763;48.730;9.136;2022-09-25T17:03:11;14.40;99.90
31113;DHT22;17763;48.730;9.136;2022-09-25T17:05:37;14.30;99.90
31113;DHT22;17763;48.730;9.136;2022-09-25T17:08:18;14.30;99.90
31113;DHT22;17763;48.730;9.136;2022-09-25T17:10:48;14.20;99.90
31113;DHT22;17763;48.730;9.136;2022-09-25T17:13:17;14.10;99.90
31113;DHT22;17763;48.730;9.136;2022-09-25T17:15:43;14.10;99.90
31113;DHT22;17763;48.730;9.136;2022-09-25T17:18:21;14.10;99.90
31113;DHT22;17763;48.730;9.136;2022-09-25T17:20:56;14.00;99.90
31113;DHT22;17763;48.730;9.136;2022-09-25T17:23:24;14.00;99.90
31113;DHT22;17763;48.730;9.136;2022-09-25T17:26:02;14.00;99.90
31113;DHT22;17763;48.730;9.136;2022-09-25T17:28:28;13.90;99.90
31113;DHT22;17763;48.730;9.136;2022-09-25T17:30:54;13.80;99.90
31113;DHT22;17763;48.730;9.136;2022-09-25T17:33:22;13.80;99.90
31113;DHT22;17763;48.730;9.136;2022-09-25T17:38:16;13.90;99.90
31113;DHT22;17763;48.730;9.136;2022-09-25T17:40:46;13.80;99.90
31113;DHT22;17763;48.730;9.136;2022-09-25T17:43:15;13.80;99.90
31113;DHT22;17763;48.730;9.136;2022-09-25T17:45:44;13.80;99.90
31113;DHT22;17763;48.730;9.136;2022-09-25T17:48:14;13.70;99.90
31113;DHT22;17763;48.730;9.136;2022-09-25T17:50:43;13.70;99.90
31113;DHT22;17763;48.730;9.136;2022-09-25T17:53:17;13.70;99.90
31113;DHT22;17763;48.730;9.136;2022-09-25T17:55:44;13.70;99.90
31113;DHT22;17763;48.730;9.136;2022-09-25T17:58:12;13.70;99.90
31113;DHT22;17763;48.730;9.136;2022-09-25T18:00:41;13.60;99.90
31113;DHT22;17763;48.730;9.136;2022-09-25T18:03:12;13.60;99.90
31113;DHT22;17763;48.730;9.136;2022-09-25T18:05:39;13.50;99.90
31113;DHT22;17763;48.730;9.136;2022-09-25T18:08:04;13.50;99.90
31113;DHT22;17763;48.730;9.136;2022-09-25T18:10:30;13.40;99.90
31113;DHT22;17763;48.730;9.136;2022-09-25T18:12:59;13.40;99.90
31113;DHT22;17763;48.730;9.136;2022-09-25T18:15:26;13.40;99.90
31113;DHT22;17763;48.730;9.136;2022-09-25T18:17:52;13.40;99.90
31113;DHT22;17763;48.730;9.136;2022-09-25T18:20:18;13.40;99.90
31113;DHT22;17763;48.730;9.136;2022-09-25T18:23:02;13.20;99.90
31113;DHT22;17763;48.730;9.136;2022-09-25T18:25:31;13.10;99.90
31113;DHT22;17763;48.730;9.136;2022-09-25T18:27:58;13.20;99.90
31113;DHT22;17763;48.730;9.136;2022-09-25T18:30:24;13.10;99.90
31113;DHT22;17763;48.730;9.136;2022-09-25T18:32:50;13.10;99.90
31113;DHT22;17763;48.730;9.136;2022-09-25T18:35:19;13.10;99.90
31113;DHT22;17763;48.730;9.136;2022-09-25T18:37:45;13.10;99.90